sensor_id;sensor_type;location;lat;lon;timestamp;P1;durP1;ratioP1;P2;durP2;ratioP2
54259;SDS011;40172;53.022;7.012;2022-12-20T00:01:16;8.93;;;5.20;;
54259;SDS011;40172;53.022;7.012;2022-12-20T00:03:44;8.15;;;5.63;;
54259;SDS011;40172;53.022;7.012;2022-12-20T00:06:10;11.40;;;6.13;;
54259;SDS011;40172;53.022;7.012;2022-12-20T00:08:37;10.38;;;5.38;;
54259;SDS011;40172;53.022;7.012;2022-12-20T00:11:04;7.90;;;5.65;;
54259;SDS011;40172;53.022;7.012;2022-12-20T00:13:30;7.38;;;5.57;;
54259;SDS011;40172;53.022;7.012;2022-12-20T00:16:07;7.60;;;5.70;;
54259;SDS011;40172;53.022;7.012;2022-12-20T00:18:33;9.13;;;5.35;;
54259;SDS011;40172;53.022;7.012;2022-12-20T00:21:00;9.18;;;5.65;;
54259;SDS011;40172;53.022;7.012;2022-12-20T00:23:26;9.70;;;5.43;;
54259;SDS011;40172;53.022;7.012;2022-12-20T00:25:58;8.02;;;5.10;;
54259;SDS011;40172;53.022;7.012;2022-12-20T00:28:28;8.63;;;5.22;;
54259;SDS011;40172;53.022;7.012;2022-12-20T00:30:54;8.40;;;5.03;;
54259;SDS011;40172;53.022;7.012;2022-12-20T00:33:20;7.72;;;5.20;;
54259;SDS011;40172;53.022;7.012;2022-12-20T00:35:45;8.18;;;5.32;;
54259;SDS011;40172;53.022;7.012;2022-12-20T00:38:11;6.78;;;4.95;;
54259;SDS011;40172;53.022;7.012;2022-12-20T00:40:37;8.32;;;4.80;;
54259;SDS011;40172;53.022;7.012;2022-12-20T00:43:02;10.55;;;5.90;;
54259;SDS011;40172;53.022;7.012;2022-12-20T00:45:28;9.30;;;5.20;;
54259;SDS011;40172;53.022;7.012;2022-12-20T00:47:53;7.80;;;4.90;;
54259;SDS011;40172;53.022;7.012;2022-12-20T00:50:19;9.85;;;5.40;;
54259;SDS011;40172;53.022;7.012;2022-12-20T00:52:44;7.15;;;4.93;;
54259;SDS011;40172;53.022;7.012;2022-12-20T00:55:10;8.52;;;4.97;;
54259;SDS011;40172;53.022;7.012;2022-12-20T00:57:36;7.63;;;4.85;;
54259;SDS011;40172;53.022;7.012;2022-12-20T01:00:01;8.30;;;5.32;;
54259;SDS011;40172;53.022;7.012;2022-12-20T01:02:27;7.03;;;4.72;;
54259;SDS011;40172;53.022;7.012;2022-12-20T01:04:53;6.57;;;4.57;;
54259;SDS011;40172;53.022;7.012;2022-12-20T01:07:19;7.97;;;4.82;;
54259;SDS011;40172;53.022;7.012;2022-12-20T01:09:47;6.93;;;4.55;;
54259;SDS011;40172;53.022;7.012;2022-12-20T01:12:13;7.15;;;4.68;;
54259;SDS011;40172;53.022;7.012;2022-12-20T01:14:38;8.20;;;4.95;;
54259;SDS011;40172;53.022;7.012;2022-12-20T01:17:04;8.10;;;4.55;;
54259;SDS011;40172;53.022;7.012;2022-12-20T01:19:30;10.35;;;4.40;;
54259;SDS011;40172;53.022;7.012;2022-12-20T01:21:55;7.80;;;4.40;;
54259;SDS011;40172;53.022;7.012;2022-12-20T01:24:21;7.13;;;4.70;;
54259;SDS011;40172;53.022;7.012;2022-12-20T01:26:46;7.50;;;4.13;;
54259;SDS011;40172;53.022;7.012;2022-12-20T01:29:12;6.00;;;4.32;;
54259;SDS011;40172;53.022;7.012;2022-12-20T01:31:38;8.15;;;4.57;;
54259;SDS011;40172;53.022;7.012;2022-12-20T01:34:04;8.45;;;4.38;;
54259;SDS011;40172;53.022;7.012;2022-12-20T01:36:33;5.95;;;4.38;;
54259;SDS011;40172;53.022;7.012;2022-12-20T01:39:13;7.40;;;4.50;;
54259;SDS011;40172;53.022;7.012;2022-12-20T01:41:40;7.43;;;4.47;;
54259;SDS011;40172;53.022;7.012;2022-12-20T01:46:41;9.13;;;4.30;;
54259;SDS011;40172;53.022;7.012;2022-12-20T01:49:13;8.57;;;4.20;;
54259;SDS011;40172;53.022;7.012;2022-12-20T01:51:59;7.38;;;4.45;;
54259;SDS011;40172;53.022;7.012;2022-12-20T01:54:31;7.38;;;4.25;;
54259;SDS011;40172;53.022;7.012;2022-12-20T01:57:47;7.72;;;4.35;;
54259;SDS011;40172;53.022;7.012;2022-12-20T02:00:00;8.07;;;4.38;;
54259;SDS011;40172;53.022;7.012;2022-12-20T02:02:26;6.75;;;4.30;;
54259;SDS011;40172;53.022;7.012;2022-12-20T02:04:52;6.15;;;3.95;;
54259;SDS011;40172;53.022;7.012;2022-12-20T02:07:19;6.22;;;4.05;;
54259;SDS011;40172;53.022;7.012;2022-12-20T02:09:48;7.22;;;4.30;;
54259;SDS011;40172;53.022;7.012;2022-12-20T02:12:15;7.00;;;4.30;;
54259;SDS011;40172;53.022;7.012;2022-12-20T02:17:35;7.97;;;4.70;;
54259;SDS011;40172;53.022;7.012;2022-12-20T02:25:56;6.05;;;4.20;;
54259;SDS011;40172;53.022;7.012;2022-12-20T02:32:01;6.28;;;4.10;;
54259;SDS011;40172;53.022;7.012;2022-12-20T02:34:44;7.57;;;4.00;;
54259;SDS011;40172;53.022;7.012;2022-12-20T02:37:10;6.00;;;4.22;;
54259;SDS011;40172;53.022;7.012;2022-12-20T02:39:36;10.00;;;4.30;;
54259;SDS011;40172;53.022;7.012;2022-12-20T02:42:14;6.45;;;3.95;;
54259;SDS011;40172;53.022;7.012;2022-12-20T02:44:45;6.13;;;4.15;;
54259;SDS011;40172;53.022;7.012;2022-12-20T02:47:38;6.88;;;4.20;;
54259;SDS011;40172;53.022;7.012;2022-12-20T02:50:09;8.43;;;4.43;;
54259;SDS011;40172;53.022;7.012;2022-12-20T02:52:36;6.15;;;4.10;;
54259;SDS011;40172;53.022;7.012;2022-12-20T02:55:04;6.43;;;4.03;;
54259;SDS011;40172;53.022;7.012;2022-12-20T03:00:19;10.35;;;4.30;;
54259;SDS011;40172;53.022;7.012;2022-12-20T03:02:46;8.35;;;4.40;;
54259;SDS011;40172;53.022;7.012;2022-12-20T03:05:32;9.00;;;4.45;;
54259;SDS011;40172;53.022;7.012;2022-12-20T03:08:02;8.13;;;4.00;;
54259;SDS011;40172;53.022;7.012;2022-12-20T03:10:28;8.38;;;4.47;;
54259;SDS011;40172;53.022;7.012;2022-12-20T03:12:53;9.25;;;4.05;;
54259;SDS011;40172;53.022;7.012;2022-12-20T03:15:19;6.35;;;4.40;;
54259;SDS011;40172;53.022;7.012;2022-12-20T03:17:45;6.13;;;3.90;;
54259;SDS011;40172;53.022;7.012;2022-12-20T03:20:11;8.50;;;4.50;;
54259;SDS011;40172;53.022;7.012;2022-12-20T03:22:37;7.78;;;4.25;;
54259;SDS011;40172;53.022;7.012;2022-12-20T03:25:03;8.57;;;4.53;;
54259;SDS011;40172;53.022;7.012;2022-12-20T03:27:29;9.10;;;4.25;;
54259;SDS011;40172;53.022;7.012;2022-12-20T03:29:55;10.57;;;4.55;;
54259;SDS011;40172;53.022;7.012;2022-12-20T03:32:20;7.97;;;4.85;;
54259;SDS011;40172;53.022;7.012;2022-12-20T03:34:46;7.43;;;4.65;;
54259;SDS011;40172;53.022;7.012;2022-12-20T03:37:12;6.95;;;4.47;;
54259;SDS011;40172;53.022;7.012;2022-12-20T03:39:37;9.60;;;5.50;;
54259;SDS011;40172;53.022;7.012;2022-12-20T03:42:03;7.55;;;4.90;;
54259;SDS011;40172;53.022;7.012;2022-12-20T03:44:29;7.13;;;4.50;;
54259;SDS011;40172;53.022;7.012;2022-12-20T03:46:54;7.28;;;4.93;;
54259;SDS011;40172;53.022;7.012;2022-12-20T03:49:20;6.20;;;4.80;;
54259;SDS011;40172;53.022;7.012;2022-12-20T03:51:46;8.80;;;5.07;;
54259;SDS011;40172;53.022;7.012;2022-12-20T03:54:11;8.77;;;4.65;;
54259;SDS011;40172;53.022;7.012;2022-12-20T03:56:37;9.25;;;4.95;;
54259;SDS011;40172;53.022;7.012;2022-12-20T03:59:02;11.00;;;5.65;;
54259;SDS011;40172;53.022;7.012;2022-12-20T04:01:28;8.73;;;5.10;;
54259;SDS011;40172;53.022;7.012;2022-12-20T04:03:54;8.43;;;4.78;;
54259;SDS011;40172;53.022;7.012;2022-12-20T04:06:21;10.20;;;5.55;;
54259;SDS011;40172;53.022;7.012;2022-12-20T04:08:48;9.55;;;5.72;;
54259;SDS011;40172;53.022;7.012;2022-12-20T04:11:13;7.60;;;4.90;;
54259;SDS011;40172;53.022;7.012;2022-12-20T04:13:44;6.50;;;4.95;;
54259;SDS011;40172;53.022;7.012;2022-12-20T04:16:14;8.43;;;5.25;;
54259;SDS011;40172;53.022;7.012;2022-12-20T04:18:41;8.38;;;4.70;;
54259;SDS011;40172;53.022;7.012;2022-12-20T04:21:07;7.40;;;5.18;;
54259;SDS011;40172;53.022;7.012;2022-12-20T04:23:36;8.80;;;5.28;;
54259;SDS011;40172;53.022;7.012;2022-12-20T04:26:04;8.10;;;4.90;;
54259;SDS011;40172;53.022;7.012;2022-12-20T04:28:30;10.02;;;5.30;;
54259;SDS011;40172;53.022;7.012;2022-12-20T04:30:56;8.43;;;5.60;;
54259;SDS011;40172;53.022;7.012;2022-12-20T04:33:22;8.02;;;5.22;;
54259;SDS011;40172;53.022;7.012;2022-12-20T04:35:49;9.38;;;5.05;;
54259;SDS011;40172;53.022;7.012;2022-12-20T04:38:15;8.75;;;5.95;;
54259;SDS011;40172;53.022;7.012;2022-12-20T04:40:42;8.90;;;5.60;;
54259;SDS011;40172;53.022;7.012;2022-12-20T04:43:07;11.57;;;5.90;;
54259;SDS011;40172;53.022;7.012;2022-12-20T04:45:34;8.73;;;5.47;;
54259;SDS011;40172;53.022;7.012;2022-12-20T04:47:59;8.63;;;5.88;;
54259;SDS011;40172;53.022;7.012;2022-12-20T04:50:25;10.13;;;5.80;;
54259;SDS011;40172;53.022;7.012;2022-12-20T04:52:51;8.98;;;5.90;;
54259;SDS011;40172;53.022;7.012;2022-12-20T04:55:38;9.25;;;5.65;;
54259;SDS011;40172;53.022;7.012;2022-12-20T04:58:04;11.85;;;6.20;;
54259;SDS011;40172;53.022;7.012;2022-12-20T05:00:31;15.30;;;6.45;;
54259;SDS011;40172;53.022;7.012;2022-12-20T05:02:57;8.15;;;5.88;;
54259;SDS011;40172;53.022;7.012;2022-12-20T05:05:23;8.90;;;5.82;;
54259;SDS011;40172;53.022;7.012;2022-12-20T05:07:49;8.68;;;5.93;;
54259;SDS011;40172;53.022;7.012;2022-12-20T05:10:15;9.20;;;6.05;;
54259;SDS011;40172;53.022;7.012;2022-12-20T05:12:40;8.10;;;5.90;;
54259;SDS011;40172;53.022;7.012;2022-12-20T05:15:06;8.43;;;6.18;;
54259;SDS011;40172;53.022;7.012;2022-12-20T05:17:32;10.13;;;6.38;;
54259;SDS011;40172;53.022;7.012;2022-12-20T05:19:58;7.97;;;6.03;;
54259;SDS011;40172;53.022;7.012;2022-12-20T05:22:25;9.40;;;6.20;;
54259;SDS011;40172;53.022;7.012;2022-12-20T05:25:19;8.25;;;6.35;;
54259;SDS011;40172;53.022;7.012;2022-12-20T05:28:04;8.88;;;5.97;;
54259;SDS011;40172;53.022;7.012;2022-12-20T05:30:29;9.25;;;5.38;;
54259;SDS011;40172;53.022;7.012;2022-12-20T05:32:55;9.80;;;5.97;;
54259;SDS011;40172;53.022;7.012;2022-12-20T05:35:20;10.32;;;5.82;;
54259;SDS011;40172;53.022;7.012;2022-12-20T05:37:46;8.95;;;5.25;;
54259;SDS011;40172;53.022;7.012;2022-12-20T05:40:12;7.10;;;5.57;;
54259;SDS011;40172;53.022;7.012;2022-12-20T05:42:38;10.52;;;5.40;;
54259;SDS011;40172;53.022;7.012;2022-12-20T05:45:04;6.60;;;4.68;;
54259;SDS011;40172;53.022;7.012;2022-12-20T05:47:30;9.15;;;5.22;;
54259;SDS011;40172;53.022;7.012;2022-12-20T05:49:58;7.05;;;5.18;;
54259;SDS011;40172;53.022;7.012;2022-12-20T05:52:24;6.07;;;4.43;;
54259;SDS011;40172;53.022;7.012;2022-12-20T05:54:50;6.78;;;4.88;;
54259;SDS011;40172;53.022;7.012;2022-12-20T05:57:15;9.60;;;4.70;;
54259;SDS011;40172;53.022;7.012;2022-12-20T05:59:41;9.68;;;4.40;;
54259;SDS011;40172;53.022;7.012;2022-12-20T06:02:07;8.95;;;4.93;;
54259;SDS011;40172;53.022;7.012;2022-12-20T06:04:34;7.22;;;4.70;;
54259;SDS011;40172;53.022;7.012;2022-12-20T06:07:00;6.72;;;4.70;;
54259;SDS011;40172;53.022;7.012;2022-12-20T06:09:26;7.38;;;4.20;;
54259;SDS011;40172;53.022;7.012;2022-12-20T06:11:51;6.88;;;4.50;;
54259;SDS011;40172;53.022;7.012;2022-12-20T06:14:17;6.22;;;4.60;;
54259;SDS011;40172;53.022;7.012;2022-12-20T06:16:43;7.28;;;4.30;;
54259;SDS011;40172;53.022;7.012;2022-12-20T06:19:08;9.02;;;4.50;;
54259;SDS011;40172;53.022;7.012;2022-12-20T06:21:34;8.35;;;4.65;;
54259;SDS011;40172;53.022;7.012;2022-12-20T06:23:59;4.80;;;4.00;;
54259;SDS011;40172;53.022;7.012;2022-12-20T06:26:25;6.75;;;4.47;;
54259;SDS011;40172;53.022;7.012;2022-12-20T06:28:51;6.78;;;4.15;;
54259;SDS011;40172;53.022;7.012;2022-12-20T06:31:18;6.88;;;4.20;;
54259;SDS011;40172;53.022;7.012;2022-12-20T06:33:44;7.45;;;4.60;;
54259;SDS011;40172;53.022;7.012;2022-12-20T06:36:10;9.45;;;5.20;;
54259;SDS011;40172;53.022;7.012;2022-12-20T06:38:36;9.70;;;4.60;;
54259;SDS011;40172;53.022;7.012;2022-12-20T06:41:01;8.25;;;4.30;;
54259;SDS011;40172;53.022;7.012;2022-12-20T06:43:27;6.50;;;4.40;;
54259;SDS011;40172;53.022;7.012;2022-12-20T06:45:53;6.93;;;4.25;;
54259;SDS011;40172;53.022;7.012;2022-12-20T06:48:18;8.55;;;4.72;;
54259;SDS011;40172;53.022;7.012;2022-12-20T06:50:46;7.55;;;4.70;;
54259;SDS011;40172;53.022;7.012;2022-12-20T06:53:15;5.55;;;4.25;;
54259;SDS011;40172;53.022;7.012;2022-12-20T06:55:41;10.55;;;5.22;;
54259;SDS011;40172;53.022;7.012;2022-12-20T06:58:06;6.70;;;4.20;;
54259;SDS011;40172;53.022;7.012;2022-12-20T07:00:32;6.60;;;4.50;;
54259;SDS011;40172;53.022;7.012;2022-12-20T07:02:58;7.75;;;5.00;;
54259;SDS011;40172;53.022;7.012;2022-12-20T07:05:23;9.77;;;4.63;;
54259;SDS011;40172;53.022;7.012;2022-12-20T07:07:49;8.40;;;4.80;;
54259;SDS011;40172;53.022;7.012;2022-12-20T07:10:15;9.13;;;4.95;;
54259;SDS011;40172;53.022;7.012;2022-12-20T07:12:41;5.78;;;4.82;;
54259;SDS011;40172;53.022;7.012;2022-12-20T07:15:06;10.10;;;5.05;;
54259;SDS011;40172;53.022;7.012;2022-12-20T07:17:33;11.88;;;5.30;;
54259;SDS011;40172;53.022;7.012;2022-12-20T07:19:58;7.10;;;5.32;;
54259;SDS011;40172;53.022;7.012;2022-12-20T07:22:24;9.55;;;6.00;;
54259;SDS011;40172;53.022;7.012;2022-12-20T07:24:50;8.60;;;5.55;;
54259;SDS011;40172;53.022;7.012;2022-12-20T07:27:15;8.63;;;5.80;;
54259;SDS011;40172;53.022;7.012;2022-12-20T07:29:41;8.25;;;5.70;;
54259;SDS011;40172;53.022;7.012;2022-12-20T07:32:07;9.40;;;6.03;;
54259;SDS011;40172;53.022;7.012;2022-12-20T07:34:35;10.90;;;6.15;;
54259;SDS011;40172;53.022;7.012;2022-12-20T07:37:01;8.18;;;6.03;;
54259;SDS011;40172;53.022;7.012;2022-12-20T07:39:26;9.35;;;6.38;;
54259;SDS011;40172;53.022;7.012;2022-12-20T07:41:53;9.82;;;6.10;;
54259;SDS011;40172;53.022;7.012;2022-12-20T07:44:19;10.98;;;6.22;;
54259;SDS011;40172;53.022;7.012;2022-12-20T07:46:45;11.70;;;6.75;;
54259;SDS011;40172;53.022;7.012;2022-12-20T07:49:11;9.35;;;6.85;;
54259;SDS011;40172;53.022;7.012;2022-12-20T07:51:38;10.32;;;6.93;;
54259;SDS011;40172;53.022;7.012;2022-12-20T07:57:02;7.90;;;6.55;;
54259;SDS011;40172;53.022;7.012;2022-12-20T07:59:41;10.60;;;7.28;;
54259;SDS011;40172;53.022;7.012;2022-12-20T08:02:14;12.05;;;6.80;;
54259;SDS011;40172;53.022;7.012;2022-12-20T08:04:44;12.55;;;7.85;;
54259;SDS011;40172;53.022;7.012;2022-12-20T08:07:10;11.48;;;7.47;;
54259;SDS011;40172;53.022;7.012;2022-12-20T08:09:37;8.60;;;7.28;;
54259;SDS011;40172;53.022;7.012;2022-12-20T08:12:06;11.70;;;7.10;;
54259;SDS011;40172;53.022;7.012;2022-12-20T08:14:32;12.13;;;7.05;;
54259;SDS011;40172;53.022;7.012;2022-12-20T08:16:58;11.10;;;7.10;;
54259;SDS011;40172;53.022;7.012;2022-12-20T08:19:24;10.00;;;7.70;;
54259;SDS011;40172;53.022;7.012;2022-12-20T08:21:50;9.63;;;7.18;;
54259;SDS011;40172;53.022;7.012;2022-12-20T08:24:15;11.32;;;7.05;;
54259;SDS011;40172;53.022;7.012;2022-12-20T08:26:41;10.75;;;6.82;;
54259;SDS011;40172;53.022;7.012;2022-12-20T08:29:06;9.43;;;6.72;;
54259;SDS011;40172;53.022;7.012;2022-12-20T08:31:35;9.80;;;6.47;;
54259;SDS011;40172;53.022;7.012;2022-12-20T08:34:02;12.35;;;6.50;;
54259;SDS011;40172;53.022;7.012;2022-12-20T08:36:28;10.02;;;5.88;;
54259;SDS011;40172;53.022;7.012;2022-12-20T08:38:54;7.88;;;5.65;;
54259;SDS011;40172;53.022;7.012;2022-12-20T08:41:19;8.90;;;5.28;;
54259;SDS011;40172;53.022;7.012;2022-12-20T08:43:45;8.15;;;5.00;;
54259;SDS011;40172;53.022;7.012;2022-12-20T08:46:11;8.35;;;5.15;;
54259;SDS011;40172;53.022;7.012;2022-12-20T08:48:37;9.50;;;5.15;;
54259;SDS011;40172;53.022;7.012;2022-12-20T08:51:04;8.43;;;4.78;;
54259;SDS011;40172;53.022;7.012;2022-12-20T08:53:31;8.55;;;4.63;;
54259;SDS011;40172;53.022;7.012;2022-12-20T08:56:03;8.30;;;4.65;;
54259;SDS011;40172;53.022;7.012;2022-12-20T08:58:30;7.30;;;4.40;;
54259;SDS011;40172;53.022;7.012;2022-12-20T09:00:59;9.50;;;4.20;;
54259;SDS011;40172;53.022;7.012;2022-12-20T09:03:28;9.38;;;4.47;;
54259;SDS011;40172;53.022;7.012;2022-12-20T09:05:54;8.52;;;3.97;;
54259;SDS011;40172;53.022;7.012;2022-12-20T09:08:19;5.63;;;3.53;;
54259;SDS011;40172;53.022;7.012;2022-12-20T09:10:45;7.30;;;3.97;;
54259;SDS011;40172;53.022;7.012;2022-12-20T09:13:11;8.60;;;4.30;;
54259;SDS011;40172;53.022;7.012;2022-12-20T09:15:36;6.85;;;4.05;;
54259;SDS011;40172;53.022;7.012;2022-12-20T09:18:02;9.20;;;4.30;;
54259;SDS011;40172;53.022;7.012;2022-12-20T09:20:28;6.13;;;3.45;;
54259;SDS011;40172;53.022;7.012;2022-12-20T09:22:54;8.45;;;3.60;;
54259;SDS011;40172;53.022;7.012;2022-12-20T09:25:20;5.97;;;3.40;;
54259;SDS011;40172;53.022;7.012;2022-12-20T09:27:45;5.07;;;3.38;;
54259;SDS011;40172;53.022;7.012;2022-12-20T09:30:11;8.77;;;3.85;;
54259;SDS011;40172;53.022;7.012;2022-12-20T09:32:37;6.35;;;3.70;;
54259;SDS011;40172;53.022;7.012;2022-12-20T09:35:03;7.07;;;3.70;;
54259;SDS011;40172;53.022;7.012;2022-12-20T09:37:30;7.35;;;3.40;;
54259;SDS011;40172;53.022;7.012;2022-12-20T09:39:56;5.82;;;3.25;;
54259;SDS011;40172;53.022;7.012;2022-12-20T09:42:23;5.30;;;3.45;;
54259;SDS011;40172;53.022;7.012;2022-12-20T09:44:51;7.75;;;3.70;;
54259;SDS011;40172;53.022;7.012;2022-12-20T09:47:18;6.95;;;3.30;;
54259;SDS011;40172;53.022;7.012;2022-12-20T09:49:47;5.45;;;3.35;;
54259;SDS011;40172;53.022;7.012;2022-12-20T09:52:24;6.00;;;3.55;;
54259;SDS011;40172;53.022;7.012;2022-12-20T09:58:29;9.73;;;3.72;;
54259;SDS011;40172;53.022;7.012;2022-12-20T10:01:04;6.40;;;3.67;;
54259;SDS011;40172;53.022;7.012;2022-12-20T10:03:40;5.00;;;3.50;;
54259;SDS011;40172;53.022;7.012;2022-12-20T10:06:12;7.15;;;3.83;;
54259;SDS011;40172;53.022;7.012;2022-12-20T10:09:02;7.75;;;3.50;;
54259;SDS011;40172;53.022;7.012;2022-12-20T10:16:52;6.75;;;3.42;;
54259;SDS011;40172;53.022;7.012;2022-12-20T10:19:28;6.25;;;3.40;;
54259;SDS011;40172;53.022;7.012;2022-12-20T10:22:24;6.70;;;3.63;;
54259;SDS011;40172;53.022;7.012;2022-12-20T10:27:26;5.90;;;3.60;;
54259;SDS011;40172;53.022;7.012;2022-12-20T10:29:51;6.85;;;4.10;;
54259;SDS011;40172;53.022;7.012;2022-12-20T10:32:19;9.27;;;3.83;;
54259;SDS011;40172;53.022;7.012;2022-12-20T10:40:25;8.13;;;4.60;;
54259;SDS011;40172;53.022;7.012;2022-12-20T10:42:56;8.48;;;4.32;;
54259;SDS011;40172;53.022;7.012;2022-12-20T10:47:48;7.15;;;4.40;;
54259;SDS011;40172;53.022;7.012;2022-12-20T10:50:17;7.70;;;4.32;;
54259;SDS011;40172;53.022;7.012;2022-12-20T10:52:44;8.40;;;4.20;;
54259;SDS011;40172;53.022;7.012;2022-12-20T10:55:36;10.45;;;4.70;;
54259;SDS011;40172;53.022;7.012;2022-12-20T10:58:04;13.02;;;4.95;;
54259;SDS011;40172;53.022;7.012;2022-12-20T11:03:11;8.85;;;4.72;;
54259;SDS011;40172;53.022;7.012;2022-12-20T11:08:39;9.43;;;4.88;;
54259;SDS011;40172;53.022;7.012;2022-12-20T11:11:10;11.43;;;4.80;;
54259;SDS011;40172;53.022;7.012;2022-12-20T11:13:40;9.82;;;4.90;;
54259;SDS011;40172;53.022;7.012;2022-12-20T11:16:08;9.15;;;4.63;;
54259;SDS011;40172;53.022;7.012;2022-12-20T11:24:46;8.98;;;5.00;;
54259;SDS011;40172;53.022;7.012;2022-12-20T11:27:24;9.27;;;4.65;;
54259;SDS011;40172;53.022;7.012;2022-12-20T11:35:54;7.97;;;4.72;;
54259;SDS011;40172;53.022;7.012;2022-12-20T11:38:42;11.38;;;4.85;;
54259;SDS011;40172;53.022;7.012;2022-12-20T11:58:00;13.68;;;5.10;;
54259;SDS011;40172;53.022;7.012;2022-12-20T12:00:29;7.18;;;4.68;;
54259;SDS011;40172;53.022;7.012;2022-12-20T12:08:10;9.13;;;4.47;;
54259;SDS011;40172;53.022;7.012;2022-12-20T12:10:41;7.40;;;4.18;;
54259;SDS011;40172;53.022;7.012;2022-12-20T12:13:23;6.18;;;4.35;;
54259;SDS011;40172;53.022;7.012;2022-12-20T12:18:36;9.15;;;4.50;;
54259;SDS011;40172;53.022;7.012;2022-12-20T12:23:50;7.30;;;4.63;;
54259;SDS011;40172;53.022;7.012;2022-12-20T12:26:19;7.97;;;4.80;;
54259;SDS011;40172;53.022;7.012;2022-12-20T12:28:56;8.65;;;4.78;;
54259;SDS011;40172;53.022;7.012;2022-12-20T12:31:30;8.10;;;4.97;;
54259;SDS011;40172;53.022;7.012;2022-12-20T12:40:09;8.23;;;4.88;;
54259;SDS011;40172;53.022;7.012;2022-12-20T12:42:58;8.45;;;4.90;;
54259;SDS011;40172;53.022;7.012;2022-12-20T12:48:07;9.57;;;5.20;;
54259;SDS011;40172;53.022;7.012;2022-12-20T12:50:51;7.93;;;5.47;;
54259;SDS011;40172;53.022;7.012;2022-12-20T12:53:20;11.20;;;5.60;;
54259;SDS011;40172;53.022;7.012;2022-12-20T12:55:47;8.07;;;5.20;;
54259;SDS011;40172;53.022;7.012;2022-12-20T13:03:15;9.73;;;5.97;;
54259;SDS011;40172;53.022;7.012;2022-12-20T13:05:58;9.25;;;6.03;;
54259;SDS011;40172;53.022;7.012;2022-12-20T13:08:48;10.35;;;6.13;;
54259;SDS011;40172;53.022;7.012;2022-12-20T13:11:34;9.82;;;6.32;;
54259;SDS011;40172;53.022;7.012;2022-12-20T13:16:48;8.45;;;6.70;;
54259;SDS011;40172;53.022;7.012;2022-12-20T13:19:37;11.25;;;6.70;;
54259;SDS011;40172;53.022;7.012;2022-12-20T13:24:46;11.65;;;7.03;;
54259;SDS011;40172;53.022;7.012;2022-12-20T13:38:00;10.23;;;7.68;;
54259;SDS011;40172;53.022;7.012;2022-12-20T13:40:35;9.00;;;7.07;;
54259;SDS011;40172;53.022;7.012;2022-12-20T13:43:19;10.38;;;7.30;;
54259;SDS011;40172;53.022;7.012;2022-12-20T13:45:53;10.35;;;7.25;;
54259;SDS011;40172;53.022;7.012;2022-12-20T13:48:30;11.05;;;7.68;;
54259;SDS011;40172;53.022;7.012;2022-12-20T13:51:02;12.30;;;7.28;;
54259;SDS011;40172;53.022;7.012;2022-12-20T13:53:29;9.55;;;6.97;;
54259;SDS011;40172;53.022;7.012;2022-12-20T13:55:55;12.25;;;8.25;;
54259;SDS011;40172;53.022;7.012;2022-12-20T13:58:25;14.25;;;8.15;;
54259;SDS011;40172;53.022;7.012;2022-12-20T14:01:02;12.23;;;7.90;;
54259;SDS011;40172;53.022;7.012;2022-12-20T14:03:30;9.00;;;7.78;;
54259;SDS011;40172;53.022;7.012;2022-12-20T14:05:57;9.57;;;7.80;;
54259;SDS011;40172;53.022;7.012;2022-12-20T14:08:32;10.88;;;8.02;;
54259;SDS011;40172;53.022;7.012;2022-12-20T14:11:21;8.70;;;7.80;;
54259;SDS011;40172;53.022;7.012;2022-12-20T14:13:54;10.48;;;7.75;;
54259;SDS011;40172;53.022;7.012;2022-12-20T14:16:21;9.52;;;7.78;;
54259;SDS011;40172;53.022;7.012;2022-12-20T14:18:48;11.73;;;8.02;;
54259;SDS011;40172;53.022;7.012;2022-12-20T14:21:30;12.10;;;8.85;;
54259;SDS011;40172;53.022;7.012;2022-12-20T14:24:00;10.05;;;8.10;;
54259;SDS011;40172;53.022;7.012;2022-12-20T14:26:27;12.40;;;8.90;;
54259;SDS011;40172;53.022;7.012;2022-12-20T14:28:57;12.32;;;8.73;;
54259;SDS011;40172;53.022;7.012;2022-12-20T14:31:26;9.77;;;8.60;;
54259;SDS011;40172;53.022;7.012;2022-12-20T14:36:43;13.50;;;9.35;;
54259;SDS011;40172;53.022;7.012;2022-12-20T14:39:23;11.27;;;9.15;;
54259;SDS011;40172;53.022;7.012;2022-12-20T14:44:31;10.20;;;8.85;;
54259;SDS011;40172;53.022;7.012;2022-12-20T14:46:58;10.13;;;9.07;;
54259;SDS011;40172;53.022;7.012;2022-12-20T14:49:33;12.27;;;8.88;;
54259;SDS011;40172;53.022;7.012;2022-12-20T14:52:27;13.13;;;9.20;;
54259;SDS011;40172;53.022;7.012;2022-12-20T14:57:22;10.68;;;9.55;;
54259;SDS011;40172;53.022;7.012;2022-12-20T14:59:58;10.85;;;9.85;;
54259;SDS011;40172;53.022;7.012;2022-12-20T15:02:40;13.23;;;10.27;;
54259;SDS011;40172;53.022;7.012;2022-12-20T15:16:13;13.77;;;11.60;;
54259;SDS011;40172;53.022;7.012;2022-12-20T15:19:07;16.10;;;12.38;;
54259;SDS011;40172;53.022;7.012;2022-12-20T15:21:34;16.77;;;13.23;;
54259;SDS011;40172;53.022;7.012;2022-12-20T15:24:03;15.10;;;13.15;;
54259;SDS011;40172;53.022;7.012;2022-12-20T15:26:33;14.70;;;13.20;;
54259;SDS011;40172;53.022;7.012;2022-12-20T15:28:59;17.13;;;13.60;;
54259;SDS011;40172;53.022;7.012;2022-12-20T15:31:25;16.35;;;14.40;;
54259;SDS011;40172;53.022;7.012;2022-12-20T15:33:52;15.98;;;14.30;;
54259;SDS011;40172;53.022;7.012;2022-12-20T15:36:22;17.27;;;15.30;;
54259;SDS011;40172;53.022;7.012;2022-12-20T15:38:53;17.60;;;14.70;;
54259;SDS011;40172;53.022;7.012;2022-12-20T15:41:21;18.13;;;15.60;;
54259;SDS011;40172;53.022;7.012;2022-12-20T15:43:53;19.80;;;15.80;;
54259;SDS011;40172;53.022;7.012;2022-12-20T15:46:24;18.10;;;15.65;;
54259;SDS011;40172;53.022;7.012;2022-12-20T15:48:51;22.35;;;16.92;;
54259;SDS011;40172;53.022;7.012;2022-12-20T15:51:30;24.10;;;16.48;;
54259;SDS011;40172;53.022;7.012;2022-12-20T15:53:59;18.58;;;16.65;;
54259;SDS011;40172;53.022;7.012;2022-12-20T15:56:26;19.25;;;16.88;;
54259;SDS011;40172;53.022;7.012;2022-12-20T15:58:52;19.95;;;17.67;;
54259;SDS011;40172;53.022;7.012;2022-12-20T16:01:19;19.92;;;17.48;;
54259;SDS011;40172;53.022;7.012;2022-12-20T16:03:55;19.92;;;16.65;;
54259;SDS011;40172;53.022;7.012;2022-12-20T16:06:20;19.25;;;17.08;;
54259;SDS011;40172;53.022;7.012;2022-12-20T16:08:47;22.85;;;17.02;;
54259;SDS011;40172;53.022;7.012;2022-12-20T16:11:16;20.33;;;17.65;;
54259;SDS011;40172;53.022;7.012;2022-12-20T16:13:48;18.60;;;16.50;;
54259;SDS011;40172;53.022;7.012;2022-12-20T16:16:17;18.80;;;16.80;;
54259;SDS011;40172;53.022;7.012;2022-12-20T16:18:44;20.83;;;17.38;;
54259;SDS011;40172;53.022;7.012;2022-12-20T16:21:17;20.70;;;16.88;;
54259;SDS011;40172;53.022;7.012;2022-12-20T16:23:45;20.17;;;17.77;;
54259;SDS011;40172;53.022;7.012;2022-12-20T16:26:14;18.45;;;16.58;;
54259;SDS011;40172;53.022;7.012;2022-12-20T16:28:41;20.10;;;17.10;;
54259;SDS011;40172;53.022;7.012;2022-12-20T16:31:14;18.25;;;16.45;;
54259;SDS011;40172;53.022;7.012;2022-12-20T16:33:44;20.58;;;16.92;;
54259;SDS011;40172;53.022;7.012;2022-12-20T16:36:10;19.58;;;17.63;;
54259;SDS011;40172;53.022;7.012;2022-12-20T16:38:36;19.70;;;17.65;;
54259;SDS011;40172;53.022;7.012;2022-12-20T16:41:16;20.08;;;17.80;;
54259;SDS011;40172;53.022;7.012;2022-12-20T16:43:43;20.00;;;18.08;;
54259;SDS011;40172;53.022;7.012;2022-12-20T16:46:10;20.50;;;18.33;;
54259;SDS011;40172;53.022;7.012;2022-12-20T16:48:36;21.95;;;19.58;;
54259;SDS011;40172;53.022;7.012;2022-12-20T16:51:02;21.80;;;19.50;;
54259;SDS011;40172;53.022;7.012;2022-12-20T16:53:28;21.70;;;19.42;;
54259;SDS011;40172;53.022;7.012;2022-12-20T16:55:53;22.50;;;20.17;;
54259;SDS011;40172;53.022;7.012;2022-12-20T16:58:19;21.98;;;19.70;;
54259;SDS011;40172;53.022;7.012;2022-12-20T17:00:45;24.42;;;21.02;;
54259;SDS011;40172;53.022;7.012;2022-12-20T17:03:11;24.45;;;21.67;;
54259;SDS011;40172;53.022;7.012;2022-12-20T17:05:37;23.52;;;21.13;;